База Волга

Карта отелей и гостиниц, располагающихся рядом с аэропортом База Волга :

База Волга Нижегородская область 56° 27' 41.8788" N, 43° 39' 1.4688" E
База Волга Нижегородская область 56° 27' 41.8788" N, 43° 39' 1.4688" E
Код аэродрома ИКАО
HHL7
Код аэродрома RU
ХХЛ7
Координаты
N56.46163° E043.65041°
Превышение над уровнем моря
78
Основная полоса
03/21
Курс магнитный
029,6/209,6
Длина основной ВПП
22
Ширина основной ВПП
22
Покрытие основной ВПП
Твёрдое (асфальт)
Освещение ВПП
Нет
Тип: 
Вертодром
Класс аэродрома: 
Принадлежность: 
АОН
Статус: 
Действующий
Сайт: 
E-mail аэродрома: 
Страна: 
Россия
Регион: 
Нижегородская область
Город: 
Дополнительная информация: 
Владелец ПП: нет данных. Прилет ВС строго по согласованию.


Найти трансфер

С помощью этой формы Вы можете найти трансфер из аэропорта База Волга в город, аэропорт или вокзал:

Погода в аэропортах:

Авиационная погода в Платове

Регион: 
Погода METAR: 
URRP 212300Z 26010MPS 9999 -SHRA SCT///CB 14/10 Q1005 R23/CLRD70 TEMPO VRB17G22MPS 3000 -TSRAGR SCT003 SCT020CB RMK QFE746/0995
Время наблюдения
2022-05-21T23:00:00Z
Температура C
14.0
Точка росы
10.0
Направление ветра
260
Скорость ветра (узлы)
19
Метео видимость
6.21
Облачность
Нижняя граница облачности (футы)
Явления погоды
-SHRA
Условия полета
Аэропорт подробнее: 
-SHRA - слабый ливневой дождь;

Авиационная погода в Вадсё

Регион: 
Погода METAR: 
ENVD 212250Z AUTO 03011KT 9999 -RA SCT019/// OVC033/// 03/01 Q1013
Время наблюдения
2022-05-21T22:50:00Z
Температура C
3.0
Точка росы
1.0
Направление ветра
30
Скорость ветра (узлы)
11
Метео видимость
6.21
Облачность
SCT
OVC
Нижняя граница облачности (футы)
1900
3300
Явления погоды
-RA
Условия полета
VFR
SCT – разбросанная отдельная облачность; OVC – сплошная облачность;
-RA - слабый дождь;

Авиационная погода в Белгороде

Регион: 
Погода METAR: 
UUOB 212300Z 03001MPS 3000 -SHRA BR OVC010CB 13/12 Q0997 R11/290060 NOSIG
Время наблюдения
2022-05-21T23:00:00Z
Температура C
13.0
Точка росы
12.0
Направление ветра
30
Скорость ветра (узлы)
2
Метео видимость
1.86
Облачность
OVC
Нижняя граница облачности (футы)
1000
Явления погоды
-SHRA BR
Условия полета
IFR
Аэропорт подробнее: 
OVC – сплошная облачность;
-SHRA - слабый ливневой дождь; BR – дымка (видимость от 1 до 9 км);

Авиационная погода в Волгограде

Регион: 
Погода METAR: 
URWW 212300Z 19004MPS 9000 -RA OVC005 11/11 Q1003 R24/290060 TEMPO 1000 TSRAGR BKN020CB RMK OBST OBSC
Время наблюдения
2022-05-21T23:00:00Z
Температура C
11.0
Точка росы
11.0
Направление ветра
190
Скорость ветра (узлы)
8
Метео видимость
5.59
Облачность
OVC
Нижняя граница облачности (футы)
500
Явления погоды
-RA
Условия полета
IFR
Аэропорт подробнее: 
OVC – сплошная облачность;
-RA - слабый дождь;